Meductic, Canada
Current Conditions -  °F | °C
As of 10:53 AM on Friday 26 Dec 2014 (Local Time) from KHUL Reporting Station
Broken Clouds Broken Clouds  
Wind Chill: 30°   Ceiling: 5000
Heat Index: 39°   Visibility: 10mi
Dew Point: 22°   Wind: 16mph
Humidity: 50%   Direction: 270°W
Pressure: 29.82"   Gusts: 31mph
Location:  46°N, 67.47°W
Report Text: KHUL 261453Z AUTO 27014G27KT 10SM BKN050 04/M06 A2982 RMK AO2 PK WND 27028/1415 SLP101 T00391056 53032
Loading
Personal Weather Stations






























Interactive Weather Map New forecast layout! Learn more

10-Day Weather Forecast

Advertisements
Track Severe Weather on mobile